sensor_id;sensor_type;location;lat;lon;timestamp;temperature;humidity
59162;DHT22;44942;48.936;8.260;2024-01-30T00:03:04;20.30;52.30
59162;DHT22;44942;48.936;8.260;2024-01-30T00:08:05;20.30;52.40
59162;DHT22;44942;48.936;8.260;2024-01-30T00:13:06;20.40;52.50
59162;DHT22;44942;48.936;8.260;2024-01-30T00:18:09;20.40;52.50
59162;DHT22;44942;48.936;8.260;2024-01-30T00:23:10;20.50;52.60
59162;DHT22;44942;48.936;8.260;2024-01-30T00:28:10;20.40;52.50
59162;DHT22;44942;48.936;8.260;2024-01-30T00:33:11;20.40;52.60
59162;DHT22;44942;48.936;8.260;2024-01-30T00:38:14;20.40;52.60
59162;DHT22;44942;48.936;8.260;2024-01-30T00:43:15;20.40;52.60
59162;DHT22;44942;48.936;8.260;2024-01-30T00:48:16;20.40;52.60
59162;DHT22;44942;48.936;8.260;2024-01-30T00:53:17;20.50;52.60
59162;DHT22;44942;48.936;8.260;2024-01-30T00:58:17;20.40;52.60
59162;DHT22;44942;48.936;8.260;2024-01-30T01:03:19;20.40;52.60
59162;DHT22;44942;48.936;8.260;2024-01-30T01:08:20;20.40;52.50
59162;DHT22;44942;48.936;8.260;2024-01-30T01:13:26;20.40;52.50
59162;DHT22;44942;48.936;8.260;2024-01-30T01:18:27;20.50;52.50
59162;DHT22;44942;48.936;8.260;2024-01-30T01:23:30;20.40;52.40
59162;DHT22;44942;48.936;8.260;2024-01-30T01:28:31;20.40;52.30
59162;DHT22;44942;48.936;8.260;2024-01-30T01:33:34;20.50;52.40
59162;DHT22;44942;48.936;8.260;2024-01-30T01:38:36;20.40;52.30
59162;DHT22;44942;48.936;8.260;2024-01-30T01:43:36;20.50;52.40
59162;DHT22;44942;48.936;8.260;2024-01-30T01:48:39;20.40;52.40
59162;DHT22;44942;48.936;8.260;2024-01-30T01:53:40;20.40;53.10
59162;DHT22;44942;48.936;8.260;2024-01-30T01:58:41;20.50;52.30
59162;DHT22;44942;48.936;8.260;2024-01-30T02:03:42;20.50;52.30
59162;DHT22;44942;48.936;8.260;2024-01-30T02:08:45;20.40;52.30
59162;DHT22;44942;48.936;8.260;2024-01-30T02:13:46;20.40;53.00
59162;DHT22;44942;48.936;8.260;2024-01-30T02:18:47;20.40;52.20
59162;DHT22;44942;48.936;8.260;2024-01-30T02:23:48;20.40;52.30
59162;DHT22;44942;48.936;8.260;2024-01-30T02:28:50;20.50;52.30
59162;DHT22;44942;48.936;8.260;2024-01-30T02:33:50;20.40;52.20
59162;DHT22;44942;48.936;8.260;2024-01-30T02:38:51;20.40;52.20
59162;DHT22;44942;48.936;8.260;2024-01-30T02:43:51;20.20;52.00
59162;DHT22;44942;48.936;8.260;2024-01-30T02:48:52;20.00;51.50
59162;DHT22;44942;48.936;8.260;2024-01-30T02:53:52;20.10;51.20
59162;DHT22;44942;48.936;8.260;2024-01-30T02:58:53;20.20;51.20
59162;DHT22;44942;48.936;8.260;2024-01-30T03:03:54;20.20;51.20
59162;DHT22;44942;48.936;8.260;2024-01-30T03:08:54;20.30;51.30
59162;DHT22;44942;48.936;8.260;2024-01-30T03:13:55;20.30;51.40
59162;DHT22;44942;48.936;8.260;2024-01-30T03:18:55;20.30;51.40
59162;DHT22;44942;48.936;8.260;2024-01-30T03:23:59;20.30;51.50
59162;DHT22;44942;48.936;8.260;2024-01-30T03:28:59;20.30;51.40
59162;DHT22;44942;48.936;8.260;2024-01-30T03:34:01;20.30;51.40
59162;DHT22;44942;48.936;8.260;2024-01-30T03:39:04;20.30;51.50
59162;DHT22;44942;48.936;8.260;2024-01-30T03:44:06;20.30;51.50
59162;DHT22;44942;48.936;8.260;2024-01-30T03:49:06;20.30;51.50
59162;DHT22;44942;48.936;8.260;2024-01-30T03:54:07;20.40;51.50
59162;DHT22;44942;48.936;8.260;2024-01-30T03:59:07;20.30;51.50
59162;DHT22;44942;48.936;8.260;2024-01-30T04:04:08;20.30;51.50
59162;DHT22;44942;48.936;8.260;2024-01-30T04:09:09;20.30;51.60
59162;DHT22;44942;48.936;8.260;2024-01-30T04:14:09;20.30;51.60
59162;DHT22;44942;48.936;8.260;2024-01-30T04:19:10;20.30;51.60
59162;DHT22;44942;48.936;8.260;2024-01-30T04:24:10;20.30;51.60
59162;DHT22;44942;48.936;8.260;2024-01-30T04:29:11;20.30;51.60
59162;DHT22;44942;48.936;8.260;2024-01-30T04:34:11;20.30;51.50
59162;DHT22;44942;48.936;8.260;2024-01-30T04:39:12;20.30;51.50
59162;DHT22;44942;48.936;8.260;2024-01-30T04:44:15;20.00;51.30
59162;DHT22;44942;48.936;8.260;2024-01-30T04:49:16;19.80;50.90
59162;DHT22;44942;48.936;8.260;2024-01-30T04:54:16;20.00;50.70
59162;DHT22;44942;48.936;8.260;2024-01-30T04:59:17;20.10;50.60
59162;DHT22;44942;48.936;8.260;2024-01-30T05:04:17;20.10;50.60
59162;DHT22;44942;48.936;8.260;2024-01-30T05:09:18;20.20;50.70
59162;DHT22;44942;48.936;8.260;2024-01-30T05:14:21;20.20;50.80
59162;DHT22;44942;48.936;8.260;2024-01-30T05:19:22;20.20;50.80
59162;DHT22;44942;48.936;8.260;2024-01-30T05:24:23;20.20;50.90
59162;DHT22;44942;48.936;8.260;2024-01-30T05:29:24;20.20;51.10
59162;DHT22;44942;48.936;8.260;2024-01-30T05:34:27;20.20;51.10
59162;DHT22;44942;48.936;8.260;2024-01-30T05:39:27;20.20;51.20
59162;DHT22;44942;48.936;8.260;2024-01-30T05:44:28;20.20;52.00
59162;DHT22;44942;48.936;8.260;2024-01-30T05:49:28;20.30;51.30
59162;DHT22;44942;48.936;8.260;2024-01-30T05:54:29;20.30;51.40
59162;DHT22;44942;48.936;8.260;2024-01-30T05:59:29;20.30;51.30
59162;DHT22;44942;48.936;8.260;2024-01-30T06:04:30;20.20;51.30
59162;DHT22;44942;48.936;8.260;2024-01-30T06:09:30;20.20;51.40
59162;DHT22;44942;48.936;8.260;2024-01-30T06:14:31;20.30;51.40
59162;DHT22;44942;48.936;8.260;2024-01-30T06:19:34;20.30;51.40
59162;DHT22;44942;48.936;8.260;2024-01-30T06:24:35;20.30;51.30
59162;DHT22;44942;48.936;8.260;2024-01-30T06:29:36;20.30;51.40
59162;DHT22;44942;48.936;8.260;2024-01-30T06:34:36;20.30;51.30
59162;DHT22;44942;48.936;8.260;2024-01-30T06:39:39;20.30;51.30
59162;DHT22;44942;48.936;8.260;2024-01-30T06:44:40;20.30;51.30
59162;DHT22;44942;48.936;8.260;2024-01-30T06:49:46;20.20;51.30
59162;DHT22;44942;48.936;8.260;2024-01-30T06:54:47;20.30;51.40
59162;DHT22;44942;48.936;8.260;2024-01-30T06:59:47;20.30;51.40
59162;DHT22;44942;48.936;8.260;2024-01-30T07:04:48;20.20;52.20
59162;DHT22;44942;48.936;8.260;2024-01-30T07:09:49;18.60;45.90
59162;DHT22;44942;48.936;8.260;2024-01-30T07:14:53;17.30;45.10
59162;DHT22;44942;48.936;8.260;2024-01-30T07:19:53;17.70;46.80
59162;DHT22;44942;48.936;8.260;2024-01-30T07:24:54;18.20;47.30
59162;DHT22;44942;48.936;8.260;2024-01-30T07:29:57;18.60;47.70
59162;DHT22;44942;48.936;8.260;2024-01-30T07:34:58;18.80;48.00
59162;DHT22;44942;48.936;8.260;2024-01-30T07:39:59;19.00;48.20
59162;DHT22;44942;48.936;8.260;2024-01-30T07:45:00;19.10;48.30
59162;DHT22;44942;48.936;8.260;2024-01-30T07:50:01;19.30;48.50
59162;DHT22;44942;48.936;8.260;2024-01-30T07:55:02;19.30;48.60
59162;DHT22;44942;48.936;8.260;2024-01-30T08:00:04;19.40;48.80
59162;DHT22;44942;48.936;8.260;2024-01-30T08:05:07;19.40;48.90
59162;DHT22;44942;48.936;8.260;2024-01-30T08:10:11;19.50;49.00
59162;DHT22;44942;48.936;8.260;2024-01-30T08:15:12;19.50;49.00
59162;DHT22;44942;48.936;8.260;2024-01-30T08:20:15;19.50;49.00
59162;DHT22;44942;48.936;8.260;2024-01-30T08:25:17;19.50;49.70
59162;DHT22;44942;48.936;8.260;2024-01-30T08:30:17;19.50;49.10
59162;DHT22;44942;48.936;8.260;2024-01-30T08:35:18;19.50;49.10
59162;DHT22;44942;48.936;8.260;2024-01-30T08:40:18;19.60;49.10
59162;DHT22;44942;48.936;8.260;2024-01-30T08:45:19;19.60;49.10
59162;DHT22;44942;48.936;8.260;2024-01-30T08:50:19;19.60;49.30
59162;DHT22;44942;48.936;8.260;2024-01-30T08:55:20;19.60;49.30
59162;DHT22;44942;48.936;8.260;2024-01-30T09:00:21;19.60;49.20
59162;DHT22;44942;48.936;8.260;2024-01-30T09:05:21;19.60;49.30
59162;DHT22;44942;48.936;8.260;2024-01-30T09:10:22;19.60;49.40
59162;DHT22;44942;48.936;8.260;2024-01-30T09:15:22;19.60;49.30
59162;DHT22;44942;48.936;8.260;2024-01-30T09:20:23;19.60;49.40
59162;DHT22;44942;48.936;8.260;2024-01-30T09:25:24;19.60;49.40
59162;DHT22;44942;48.936;8.260;2024-01-30T09:30:24;19.60;49.50
59162;DHT22;44942;48.936;8.260;2024-01-30T09:35:25;19.60;49.50
59162;DHT22;44942;48.936;8.260;2024-01-30T09:40:25;19.60;49.50
59162;DHT22;44942;48.936;8.260;2024-01-30T09:45:26;19.60;49.50
59162;DHT22;44942;48.936;8.260;2024-01-30T09:50:33;19.60;49.60
59162;DHT22;44942;48.936;8.260;2024-01-30T09:55:36;19.70;49.70
59162;DHT22;44942;48.936;8.260;2024-01-30T10:00:40;19.60;49.70
59162;DHT22;44942;48.936;8.260;2024-01-30T10:05:43;19.60;49.90
59162;DHT22;44942;48.936;8.260;2024-01-30T10:10:50;19.60;50.00
59162;DHT22;44942;48.936;8.260;2024-01-30T10:15:52;19.60;50.00
59162;DHT22;44942;48.936;8.260;2024-01-30T10:20:53;19.60;50.00
59162;DHT22;44942;48.936;8.260;2024-01-30T10:25:53;19.60;50.20
59162;DHT22;44942;48.936;8.260;2024-01-30T10:30:58;19.60;50.20
59162;DHT22;44942;48.936;8.260;2024-01-30T10:36:04;19.60;50.20
59162;DHT22;44942;48.936;8.260;2024-01-30T10:41:06;19.60;50.20
59162;DHT22;44942;48.936;8.260;2024-01-30T10:46:18;19.60;50.30
59162;DHT22;44942;48.936;8.260;2024-01-30T10:51:20;19.60;50.40
59162;DHT22;44942;48.936;8.260;2024-01-30T10:56:25;19.60;50.40
59162;DHT22;44942;48.936;8.260;2024-01-30T11:01:26;19.60;50.40
59162;DHT22;44942;48.936;8.260;2024-01-30T11:06:27;19.60;50.50
59162;DHT22;44942;48.936;8.260;2024-01-30T11:11:27;19.60;50.60
59162;DHT22;44942;48.936;8.260;2024-01-30T11:16:31;19.60;50.40
59162;DHT22;44942;48.936;8.260;2024-01-30T11:21:32;19.60;50.50
59162;DHT22;44942;48.936;8.260;2024-01-30T11:26:33;19.60;50.50
59162;DHT22;44942;48.936;8.260;2024-01-30T11:31:34;19.60;50.60
59162;DHT22;44942;48.936;8.260;2024-01-30T11:36:35;19.60;50.60
59162;DHT22;44942;48.936;8.260;2024-01-30T11:41:38;19.60;50.70
59162;DHT22;44942;48.936;8.260;2024-01-30T11:46:40;19.60;50.70
59162;DHT22;44942;48.936;8.260;2024-01-30T11:51:40;19.60;50.70
59162;DHT22;44942;48.936;8.260;2024-01-30T11:56:42;19.60;50.80
59162;DHT22;44942;48.936;8.260;2024-01-30T12:01:43;19.60;50.80
59162;DHT22;44942;48.936;8.260;2024-01-30T12:06:44;19.50;50.80
59162;DHT22;44942;48.936;8.260;2024-01-30T12:11:48;19.50;50.90
59162;DHT22;44942;48.936;8.260;2024-01-30T12:16:50;19.50;50.80
59162;DHT22;44942;48.936;8.260;2024-01-30T12:21:58;19.60;50.90
59162;DHT22;44942;48.936;8.260;2024-01-30T12:26:59;19.50;50.90
59162;DHT22;44942;48.936;8.260;2024-01-30T12:32:00;19.50;50.90
59162;DHT22;44942;48.936;8.260;2024-01-30T12:37:01;19.50;51.00
59162;DHT22;44942;48.936;8.260;2024-01-30T12:42:04;19.50;50.90
59162;DHT22;44942;48.936;8.260;2024-01-30T12:47:05;19.50;51.00
59162;DHT22;44942;48.936;8.260;2024-01-30T12:52:09;19.50;51.00
59162;DHT22;44942;48.936;8.260;2024-01-30T12:57:09;19.50;51.00
59162;DHT22;44942;48.936;8.260;2024-01-30T13:02:11;19.50;51.10
59162;DHT22;44942;48.936;8.260;2024-01-30T13:07:12;19.50;51.00
59162;DHT22;44942;48.936;8.260;2024-01-30T13:12:13;19.50;51.10
59162;DHT22;44942;48.936;8.260;2024-01-30T13:17:16;19.50;51.10
59162;DHT22;44942;48.936;8.260;2024-01-30T13:22:17;19.50;51.10
59162;DHT22;44942;48.936;8.260;2024-01-30T13:27:17;19.50;51.10
59162;DHT22;44942;48.936;8.260;2024-01-30T13:32:18;19.50;51.10
59162;DHT22;44942;48.936;8.260;2024-01-30T13:37:19;19.50;51.20
59162;DHT22;44942;48.936;8.260;2024-01-30T13:42:25;19.50;51.10
59162;DHT22;44942;48.936;8.260;2024-01-30T13:47:26;19.50;51.10
59162;DHT22;44942;48.936;8.260;2024-01-30T13:52:29;19.50;51.20
59162;DHT22;44942;48.936;8.260;2024-01-30T13:57:30;19.50;51.20
59162;DHT22;44942;48.936;8.260;2024-01-30T14:02:35;19.50;51.30
59162;DHT22;44942;48.936;8.260;2024-01-30T14:07:36;19.50;51.20
59162;DHT22;44942;48.936;8.260;2024-01-30T14:12:38;19.60;51.30
59162;DHT22;44942;48.936;8.260;2024-01-30T14:17:38;19.50;51.20
59162;DHT22;44942;48.936;8.260;2024-01-30T14:22:42;19.50;51.20
59162;DHT22;44942;48.936;8.260;2024-01-30T14:27:42;19.50;51.20
59162;DHT22;44942;48.936;8.260;2024-01-30T14:32:43;19.50;51.30
59162;DHT22;44942;48.936;8.260;2024-01-30T14:37:45;19.50;51.20
59162;DHT22;44942;48.936;8.260;2024-01-30T14:42:45;19.50;51.20
59162;DHT22;44942;48.936;8.260;2024-01-30T14:47:46;19.50;51.20
59162;DHT22;44942;48.936;8.260;2024-01-30T14:52:47;19.50;51.20
59162;DHT22;44942;48.936;8.260;2024-01-30T14:57:50;19.50;51.20
59162;DHT22;44942;48.936;8.260;2024-01-30T15:02:54;19.50;51.30
59162;DHT22;44942;48.936;8.260;2024-01-30T15:07:55;19.50;51.20
59162;DHT22;44942;48.936;8.260;2024-01-30T15:12:55;19.50;51.40
59162;DHT22;44942;48.936;8.260;2024-01-30T15:17:56;19.50;51.30
59162;DHT22;44942;48.936;8.260;2024-01-30T15:22:57;19.50;51.20
59162;DHT22;44942;48.936;8.260;2024-01-30T15:27:58;19.50;51.40
59162;DHT22;44942;48.936;8.260;2024-01-30T15:32:58;19.50;51.40
59162;DHT22;44942;48.936;8.260;2024-01-30T15:37:59;19.50;51.40
59162;DHT22;44942;48.936;8.260;2024-01-30T15:43:03;19.50;51.40
59162;DHT22;44942;48.936;8.260;2024-01-30T15:48:04;19.60;51.40
59162;DHT22;44942;48.936;8.260;2024-01-30T15:53:05;19.50;51.40
59162;DHT22;44942;48.936;8.260;2024-01-30T15:58:06;19.50;51.40
59162;DHT22;44942;48.936;8.260;2024-01-30T16:03:07;19.50;51.40
59162;DHT22;44942;48.936;8.260;2024-01-30T16:08:08;19.50;51.40
59162;DHT22;44942;48.936;8.260;2024-01-30T16:13:08;19.50;51.40
59162;DHT22;44942;48.936;8.260;2024-01-30T16:18:09;19.50;51.50
59162;DHT22;44942;48.936;8.260;2024-01-30T17:46:37;19.50;52.50
59162;DHT22;44942;48.936;8.260;2024-01-30T17:51:40;19.50;52.60
59162;DHT22;44942;48.936;8.260;2024-01-30T17:56:41;19.50;52.70
59162;DHT22;44942;48.936;8.260;2024-01-30T18:01:46;19.60;52.70
59162;DHT22;44942;48.936;8.260;2024-01-30T18:06:52;19.60;53.00
59162;DHT22;44942;48.936;8.260;2024-01-30T18:11:53;19.60;52.90
59162;DHT22;44942;48.936;8.260;2024-01-30T18:16:54;19.60;53.00
59162;DHT22;44942;48.936;8.260;2024-01-30T18:21:54;19.60;53.00
59162;DHT22;44942;48.936;8.260;2024-01-30T18:26:58;19.60;53.00
59162;DHT22;44942;48.936;8.260;2024-01-30T18:31:58;19.60;53.10
59162;DHT22;44942;48.936;8.260;2024-01-30T18:37:02;19.70;53.20
59162;DHT22;44942;48.936;8.260;2024-01-30T18:42:03;19.70;53.20
59162;DHT22;44942;48.936;8.260;2024-01-30T18:47:03;19.70;53.20
59162;DHT22;44942;48.936;8.260;2024-01-30T18:52:04;19.70;53.30
59162;DHT22;44942;48.936;8.260;2024-01-30T18:57:05;19.70;53.30
59162;DHT22;44942;48.936;8.260;2024-01-30T19:02:06;19.70;53.40
59162;DHT22;44942;48.936;8.260;2024-01-30T19:07:07;19.70;53.30
59162;DHT22;44942;48.936;8.260;2024-01-30T19:12:07;19.70;53.40
59162;DHT22;44942;48.936;8.260;2024-01-30T19:17:08;19.70;53.40
59162;DHT22;44942;48.936;8.260;2024-01-30T19:22:08;19.70;53.50
59162;DHT22;44942;48.936;8.260;2024-01-30T19:27:12;19.70;53.50
59162;DHT22;44942;48.936;8.260;2024-01-30T19:32:13;19.70;53.80
59162;DHT22;44942;48.936;8.260;2024-01-30T19:37:13;19.80;54.20
59162;DHT22;44942;48.936;8.260;2024-01-30T19:42:14;19.80;54.50
59162;DHT22;44942;48.936;8.260;2024-01-30T19:47:14;19.80;54.90
59162;DHT22;44942;48.936;8.260;2024-01-30T19:52:18;19.80;55.00
59162;DHT22;44942;48.936;8.260;2024-01-30T19:57:19;19.90;55.20
59162;DHT22;44942;48.936;8.260;2024-01-30T20:02:19;19.90;55.00
59162;DHT22;44942;48.936;8.260;2024-01-30T20:07:22;19.90;55.00
59162;DHT22;44942;48.936;8.260;2024-01-30T20:12:22;19.90;55.00
59162;DHT22;44942;48.936;8.260;2024-01-30T20:17:24;19.80;54.70
59162;DHT22;44942;48.936;8.260;2024-01-30T20:22:25;19.80;54.40
59162;DHT22;44942;48.936;8.260;2024-01-30T20:27:26;19.90;54.60
59162;DHT22;44942;48.936;8.260;2024-01-30T20:32:27;20.00;54.80
59162;DHT22;44942;48.936;8.260;2024-01-30T20:37:28;20.00;54.90
59162;DHT22;44942;48.936;8.260;2024-01-30T20:42:29;20.00;54.90
59162;DHT22;44942;48.936;8.260;2024-01-30T20:47:29;20.00;55.10
59162;DHT22;44942;48.936;8.260;2024-01-30T20:52:30;20.00;55.20
59162;DHT22;44942;48.936;8.260;2024-01-30T20:57:34;20.10;55.30
59162;DHT22;44942;48.936;8.260;2024-01-30T21:02:36;20.10;55.40
59162;DHT22;44942;48.936;8.260;2024-01-30T21:07:37;20.10;55.40
59162;DHT22;44942;48.936;8.260;2024-01-30T21:12:38;20.10;55.60
59162;DHT22;44942;48.936;8.260;2024-01-30T21:17:38;20.20;55.70
59162;DHT22;44942;48.936;8.260;2024-01-30T21:22:39;20.20;55.70
59162;DHT22;44942;48.936;8.260;2024-01-30T21:27:40;20.20;55.80
59162;DHT22;44942;48.936;8.260;2024-01-30T21:32:44;20.30;55.90
59162;DHT22;44942;48.936;8.260;2024-01-30T21:37:45;20.30;55.90
59162;DHT22;44942;48.936;8.260;2024-01-30T21:42:45;20.30;55.90
59162;DHT22;44942;48.936;8.260;2024-01-30T21:47:49;20.30;55.90
59162;DHT22;44942;48.936;8.260;2024-01-30T21:52:50;20.40;56.00
59162;DHT22;44942;48.936;8.260;2024-01-30T21:57:52;20.40;56.00
59162;DHT22;44942;48.936;8.260;2024-01-30T22:02:52;20.30;56.00
59162;DHT22;44942;48.936;8.260;2024-01-30T22:07:53;20.40;56.00
59162;DHT22;44942;48.936;8.260;2024-01-30T22:12:56;20.40;55.80
59162;DHT22;44942;48.936;8.260;2024-01-30T22:18:00;20.40;55.30
59162;DHT22;44942;48.936;8.260;2024-01-30T22:23:00;20.40;55.20
59162;DHT22;44942;48.936;8.260;2024-01-30T22:28:01;20.50;55.50
59162;DHT22;44942;48.936;8.260;2024-01-30T22:33:02;20.40;55.50
59162;DHT22;44942;48.936;8.260;2024-01-30T22:38:02;20.40;55.60
59162;DHT22;44942;48.936;8.260;2024-01-30T22:43:10;20.50;55.80
59162;DHT22;44942;48.936;8.260;2024-01-30T22:48:11;20.50;55.80
59162;DHT22;44942;48.936;8.260;2024-01-30T22:53:11;20.50;55.80
59162;DHT22;44942;48.936;8.260;2024-01-30T22:58:12;20.50;55.80
59162;DHT22;44942;48.936;8.260;2024-01-30T23:03:13;20.50;55.80
59162;DHT22;44942;48.936;8.260;2024-01-30T23:08:14;20.50;55.80
59162;DHT22;44942;48.936;8.260;2024-01-30T23:13:14;20.50;55.50
59162;DHT22;44942;48.936;8.260;2024-01-30T23:18:15;20.50;55.20
59162;DHT22;44942;48.936;8.260;2024-01-30T23:23:15;20.60;55.10
59162;DHT22;44942;48.936;8.260;2024-01-30T23:28:16;20.50;55.20
59162;DHT22;44942;48.936;8.260;2024-01-30T23:33:17;20.60;55.40
59162;DHT22;44942;48.936;8.260;2024-01-30T23:38:17;20.60;55.50
59162;DHT22;44942;48.936;8.260;2024-01-30T23:43:20;20.60;55.50
59162;DHT22;44942;48.936;8.260;2024-01-30T23:48:21;20.60;55.60
59162;DHT22;44942;48.936;8.260;2024-01-30T23:53:25;20.60;55.80
59162;DHT22;44942;48.936;8.260;2024-01-30T23:58:25;20.70;55.90
